Time;durP1;ratioP1;P1;durP2;ratioP2;P2;SDS_P1;SDS_P2;PMS_P1;PMS_P2;Temp;Humidity;BMP_temperature;BMP_pressure;BME280_temperature;BME280_humidity;BME280_pressure;Samples;Min_cycle;Max_cycle;Signal;HPM_P1;HPM_P2
2023/06/27 00:01:44;;;;;;;5.47;2.00;;;16.10;99.90;;;;;;5042036;28;20432;-70
2023/06/27 00:04:10;;;;;;;4.73;2.00;;;16.10;99.90;;;;;;5047561;28;20415;-70
2023/06/27 00:06:41;;;;;;;6.45;2.40;;;16.10;99.90;;;;;;5050219;28;20869;-70
2023/06/27 00:09:10;;;;;;;6.50;2.20;;;16.10;99.90;;;;;;5044780;28;20414;-70
2023/06/27 00:11:39;;;;;;;5.60;1.87;;;16.00;99.90;;;;;;5046710;28;20438;-70
2023/06/27 00:14:08;;;;;;;8.18;2.08;;;16.00;99.90;;;;;;5048800;28;20412;-70
2023/06/27 00:16:34;;;;;;;5.70;2.23;;;16.00;99.90;;;;;;5046533;28;20417;-70
2023/06/27 00:19:03;;;;;;;9.43;2.78;;;16.00;99.90;;;;;;5036270;28;20911;-70
2023/06/27 00:21:33;;;;;;;6.32;2.35;;;16.00;99.90;;;;;;5039949;28;20410;-70
2023/06/27 00:24:00;;;;;;;5.43;2.40;;;16.00;99.90;;;;;;5045532;28;20795;-70
2023/06/27 00:26:27;;;;;;;7.37;2.43;;;15.90;99.90;;;;;;5041345;28;20442;-70
2023/06/27 00:28:53;;;;;;;7.65;2.60;;;15.80;99.90;;;;;;5035278;28;20768;-70
2023/06/27 00:31:19;;;;;;;7.22;2.38;;;15.80;99.90;;;;;;5043593;28;20518;-70
2023/06/27 00:33:45;;;;;;;6.73;2.20;;;15.80;99.90;;;;;;5047246;28;20416;-70
2023/06/27 00:36:11;;;;;;;5.90;2.33;;;15.80;99.90;;;;;;5030773;28;20424;-70
2023/06/27 00:38:36;;;;;;;6.80;2.20;;;15.80;1.00;;;;;;5046998;28;20520;-70
2023/06/27 00:41:02;;;;;;;5.45;2.25;;;15.70;1.00;;;;;;5033606;28;20417;-70
2023/06/27 00:43:28;;;;;;;6.50;2.33;;;15.70;1.00;;;;;;5046987;28;20931;-71
2023/06/27 00:45:54;;;;;;;7.88;2.63;;;15.60;14.40;;;;;;5044115;28;20438;-70
2023/06/27 00:48:19;;;;;;;6.20;2.65;;;15.60;41.30;;;;;;5045993;28;20405;-70
2023/06/27 00:50:45;;;;;;;7.53;2.53;;;15.60;99.90;;;;;;5033440;28;20483;-70
2023/06/27 00:53:11;;;;;;;10.07;2.63;;;15.60;99.90;;;;;;5050009;28;20491;-70
2023/06/27 00:55:39;;;;;;;6.40;2.90;;;15.50;99.90;;;;;;5040683;28;20475;-70
2023/06/27 00:58:06;;;;;;;6.78;2.70;;;15.50;99.90;;;;;;5041891;28;20409;-70
2023/06/27 01:00:31;;;;;;;6.70;2.80;;;15.50;1.00;;;;;;5051132;28;20412;-70
2023/06/27 01:02:57;;;;;;;5.80;2.72;;;15.40;1.00;;;;;;5029505;28;20402;-70
2023/06/27 01:05:24;;;;;;;7.43;2.70;;;15.40;70.90;;;;;;5040099;28;20754;-70
2023/06/27 01:07:56;;;;;;;7.97;2.97;;;15.40;99.90;;;;;;5043710;28;20511;-70
2023/06/27 01:10:35;;;;;;;8.25;3.22;;;15.40;99.90;;;;;;5046365;28;20419;-70
2023/06/27 01:13:23;;;;;;;7.47;3.00;;;15.40;99.90;;;;;;5031233;28;20832;-70
2023/06/27 01:15:50;;;;;;;8.05;3.05;;;15.40;99.90;;;;;;5018513;28;21114;-70
2023/06/27 01:18:16;;;;;;;7.90;2.90;;;15.40;99.90;;;;;;5021022;28;20537;-70
2023/06/27 01:20:45;;;;;;;7.00;3.30;;;15.40;1.00;;;;;;5036830;28;20420;-70
2023/06/27 01:23:21;;;;;;;6.80;2.90;;;15.30;1.00;;;;;;5026604;28;20529;-69
2023/06/27 01:25:49;;;;;;;8.00;3.03;;;15.30;1.00;;;;;;5026273;28;20446;-70
2023/06/27 01:28:14;;;;;;;6.85;3.00;;;15.30;1.00;;;;;;5013798;28;20419;-69
2023/06/27 01:30:43;;;;;;;6.88;3.25;;;15.20;1.00;;;;;;5016191;28;20415;-70
2023/06/27 01:33:21;;;;;;;6.68;3.38;;;15.30;1.00;;;;;;5031538;28;20409;-69
2023/06/27 01:36:01;;;;;;;6.78;3.67;;;15.20;90.40;;;;;;5032989;28;20537;-69
2023/06/27 01:38:44;;;;;;;6.00;3.42;;;15.20;99.90;;;;;;5009509;28;20402;-69
2023/06/27 01:41:14;;;;;;;7.35;3.53;;;15.20;99.90;;;;;;5029310;28;20924;-69
2023/06/27 01:43:41;;;;;;;8.83;3.70;;;15.20;99.90;;;;;;5045322;28;21669;-70
2023/06/27 01:46:08;;;;;;;7.28;3.30;;;15.20;99.90;;;;;;5009706;28;20777;-71
2023/06/27 01:48:35;;;;;;;6.82;3.70;;;15.20;99.90;;;;;;5031240;28;20816;-70
2023/06/27 01:51:05;;;;;;;9.05;3.97;;;15.10;99.90;;;;;;5026090;28;20439;-70
2023/06/27 01:53:31;;;;;;;6.57;3.63;;;15.20;99.90;;;;;;5033003;28;20397;-70
2023/06/27 01:55:57;;;;;;;6.70;3.80;;;15.10;1.00;;;;;;5041290;28;20746;-68
2023/06/27 01:58:22;;;;;;;7.03;3.80;;;15.10;1.00;;;;;;5029455;28;20767;-69
2023/06/27 02:00:49;;;;;;;7.47;3.50;;;15.10;1.00;;;;;;5026829;28;20457;-69
2023/06/27 02:03:15;;;;;;;5.80;3.60;;;15.10;1.00;;;;;;5027601;28;20450;-69
2023/06/27 02:05:41;;;;;;;8.07;3.55;;;15.10;1.00;;;;;;5036180;28;20438;-70
2023/06/27 02:08:06;;;;;;;7.00;3.47;;;15.10;1.00;;;;;;5017646;28;20423;-69
2023/06/27 02:10:32;;;;;;;8.57;3.80;;;15.10;78.50;;;;;;5031104;28;20421;-69
2023/06/27 02:12:58;;;;;;;6.93;3.30;;;15.00;99.90;;;;;;5047166;28;21063;-70
2023/06/27 02:15:23;;;;;;;7.07;3.50;;;15.00;99.90;;;;;;5052557;28;20554;-69
2023/06/27 02:17:49;;;;;;;6.77;3.47;;;15.00;99.90;;;;;;5050040;28;20767;-69
2023/06/27 02:20:14;;;;;;;8.90;3.45;;;15.00;99.90;;;;;;5052418;28;20418;-70
2023/06/27 02:22:40;;;;;;;6.67;3.23;;;15.00;99.90;;;;;;5049851;28;20417;-70
2023/06/27 02:25:06;;;;;;;7.30;3.83;;;15.00;1.00;;;;;;5032568;28;20936;-70
2023/06/27 02:27:31;;;;;;;6.72;3.80;;;15.00;1.00;;;;;;5060866;28;20412;-70
2023/06/27 02:29:57;;;;;;;7.75;3.65;;;14.90;1.00;;;;;;5066619;28;20928;-69
2023/06/27 02:32:23;;;;;;;6.20;4.00;;;14.90;1.00;;;;;;5049443;28;20487;-69
2023/06/27 02:34:48;;;;;;;6.07;3.33;;;15.00;1.00;;;;;;5046502;28;20461;-69
2023/06/27 02:37:14;;;;;;;7.97;3.78;;;15.00;1.00;;;;;;5044458;28;20863;-69
2023/06/27 02:39:39;;;;;;;7.40;3.93;;;14.90;8.60;;;;;;5050734;28;20432;-69
2023/06/27 02:42:05;;;;;;;7.55;3.50;;;14.90;1.00;;;;;;5070239;28;20541;-69
2023/06/27 02:44:31;;;;;;;6.50;3.63;;;14.90;17.50;;;;;;5050356;28;20406;-69
2023/06/27 02:46:56;;;;;;;6.70;3.57;;;14.90;99.90;;;;;;5051844;28;20457;-69
2023/06/27 02:49:22;;;;;;;8.63;3.72;;;14.90;99.90;;;;;;5050630;28;20445;-70
2023/06/27 02:51:49;;;;;;;8.30;3.70;;;14.90;99.90;;;;;;5048829;28;20444;-69
2023/06/27 02:54:15;;;;;;;9.60;3.72;;;14.90;99.90;;;;;;5050534;28;20405;-70
2023/06/27 02:56:41;;;;;;;7.13;3.40;;;14.80;99.90;;;;;;5049418;28;20405;-70
2023/06/27 02:59:06;;;;;;;7.20;3.70;;;14.90;99.90;;;;;;5049895;28;20405;-69
2023/06/27 03:01:32;;;;;;;7.57;4.00;;;14.80;99.90;;;;;;5048793;28;20412;-69
2023/06/27 03:03:57;;;;;;;6.53;3.60;;;14.80;99.90;;;;;;5048547;28;20504;-69
2023/06/27 03:06:23;;;;;;;7.82;3.53;;;14.80;1.00;;;;;;5045555;28;20404;-69
2023/06/27 03:08:49;;;;;;;7.70;3.97;;;14.80;1.00;;;;;;5069455;28;20438;-69
2023/06/27 03:11:15;;;;;;;6.95;3.33;;;14.80;1.00;;;;;;5032051;28;20441;-70
2023/06/27 03:13:40;;;;;;;8.00;3.90;;;14.80;17.80;;;;;;5050961;28;20943;-69
2023/06/27 03:16:06;;;;;;;11.00;4.10;;;14.80;55.70;;;;;;5038967;28;20418;-69
2023/06/27 03:18:32;;;;;;;7.28;3.58;;;14.80;82.30;;;;;;5051614;28;20399;-69
2023/06/27 03:20:57;;;;;;;5.97;3.30;;;14.80;99.90;;;;;;5048528;28;20464;-69
2023/06/27 03:23:23;;;;;;;7.63;3.40;;;14.70;99.90;;;;;;5050720;28;20415;-69
2023/06/27 03:25:49;;;;;;;7.10;3.70;;;14.80;99.90;;;;;;5024634;28;20745;-69
2023/06/27 03:28:14;;;;;;;9.60;3.30;;;14.70;99.90;;;;;;5043080;28;20405;-69
2023/06/27 03:30:43;;;;;;;6.73;3.30;;;14.70;99.90;;;;;;5025010;28;20416;-69
2023/06/27 03:33:12;;;;;;;6.63;3.15;;;14.70;99.90;;;;;;5051189;28;20411;-69
2023/06/27 03:35:37;;;;;;;7.13;3.53;;;14.70;25.50;;;;;;5048648;28;20409;-69
2023/06/27 03:38:03;;;;;;;7.95;3.53;;;14.70;99.90;;;;;;5047776;28;20406;-69
2023/06/27 03:40:29;;;;;;;8.07;3.50;;;14.70;5.00;;;;;;5035057;28;21173;-69
2023/06/27 03:42:56;;;;;;;5.95;3.20;;;14.70;1.00;;;;;;5045406;28;20501;-69
2023/06/27 03:45:22;;;;;;;8.43;3.40;;;14.70;1.00;;;;;;5045555;28;20774;-69
2023/06/27 03:47:47;;;;;;;7.40;3.28;;;14.70;1.00;;;;;;5068871;28;20418;-69
2023/06/27 03:50:13;;;;;;;7.30;3.10;;;14.70;1.00;;;;;;5050079;28;20420;-69
2023/06/27 03:52:39;;;;;;;5.07;3.10;;;14.80;51.30;;;;;;5033646;28;20819;-69
2023/06/27 03:55:05;;;;;;;7.87;3.20;;;14.80;99.90;;;;;;5034404;28;20410;-69
2023/06/27 03:57:31;;;;;;;6.82;3.22;;;14.90;99.90;;;;;;5062301;28;20545;-69
2023/06/27 03:59:57;;;;;;;6.83;3.40;;;14.90;99.90;;;;;;5029042;28;20906;-69
2023/06/27 04:02:22;;;;;;;8.98;3.35;;;15.00;99.90;;;;;;5034745;28;20505;-69
2023/06/27 04:04:48;;;;;;;7.90;3.03;;;15.00;99.90;;;;;;5051270;28;20551;-69
2023/06/27 04:07:14;;;;;;;8.52;3.10;;;15.10;99.90;;;;;;5028954;28;20490;-69
2023/06/27 04:09:40;;;;;;;6.05;2.70;;;15.10;89.70;;;;;;5050278;28;20748;-69
2023/06/27 04:12:08;;;;;;;5.30;2.80;;;15.20;30.40;;;;;;5044017;28;20946;-69
2023/06/27 04:14:34;;;;;;;7.28;2.97;;;15.20;1.00;;;;;;5044932;28;20456;-69
2023/06/27 04:16:59;;;;;;;8.53;2.90;;;15.20;99.90;;;;;;5046919;28;20810;-69
2023/06/27 04:19:25;;;;;;;6.72;2.97;;;15.20;99.90;;;;;;5027872;28;20411;-70
2023/06/27 04:21:51;;;;;;;9.00;3.03;;;15.10;99.90;;;;;;5062307;28;20459;-69
2023/06/27 04:24:16;;;;;;;8.18;3.15;;;15.20;99.90;;;;;;5042485;28;20408;-70
2023/06/27 04:26:42;;;;;;;7.07;2.97;;;15.20;1.00;;;;;;5047141;28;20950;-69
2023/06/27 04:29:08;;;;;;;7.93;2.88;;;15.20;66.90;;;;;;5042525;28;21063;-70
2023/06/27 04:31:34;;;;;;;5.90;2.70;;;15.30;78.70;;;;;;5050508;28;20427;-69
2023/06/27 04:34:00;;;;;;;4.93;2.40;;;15.30;22.30;;;;;;5050041;28;20457;-70
2023/06/27 04:36:27;;;;;;;7.55;2.70;;;15.40;91.50;;;;;;5033064;28;20410;-69
2023/06/27 04:38:52;;;;;;;7.63;2.20;;;15.50;59.70;;;;;;5048089;28;21085;-70
2023/06/27 04:41:18;;;;;;;7.27;2.30;;;15.60;99.90;;;;;;5049332;28;20503;-69
2023/06/27 04:43:43;;;;;;;6.32;2.50;;;15.60;99.90;;;;;;5067744;28;20404;-70
2023/06/27 04:46:09;;;;;;;6.50;2.10;;;15.70;99.90;;;;;;5067717;28;20440;-70
2023/06/27 04:48:35;;;;;;;7.03;2.30;;;15.80;99.90;;;;;;5047567;28;20406;-70
2023/06/27 04:51:01;;;;;;;7.55;2.33;;;15.90;99.90;;;;;;5040550;28;20425;-70
2023/06/27 04:53:27;;;;;;;7.55;2.00;;;16.00;99.90;;;;;;5041670;28;20414;-70
2023/06/27 04:55:53;;;;;;;6.40;1.80;;;16.00;99.90;;;;;;5048223;28;20410;-69
2023/06/27 04:58:19;;;;;;;6.95;1.80;;;16.10;26.50;;;;;;5047071;28;20769;-70
2023/06/27 05:00:47;;;;;;;9.27;2.45;;;16.10;99.90;;;;;;5046471;28;20421;-70
2023/06/27 05:03:17;;;;;;;5.95;1.88;;;16.20;1.00;;;;;;5041253;28;20413;-70
2023/06/27 05:05:43;;;;;;;5.78;2.47;;;16.30;1.00;;;;;;5037757;28;20913;-69
2023/06/27 05:08:10;;;;;;;5.57;2.10;;;16.40;99.90;;;;;;5047579;28;20402;-69
2023/06/27 05:10:36;;;;;;;5.63;1.88;;;16.40;99.90;;;;;;5045345;28;20417;-69
2023/06/27 05:13:02;;;;;;;9.55;1.90;;;16.50;99.90;;;;;;5044353;28;20927;-70
2023/06/27 05:15:27;;;;;;;7.00;2.10;;;16.50;99.90;;;;;;5019855;28;20489;-69
2023/06/27 05:18:16;;;;;;;5.40;1.90;;;16.50;99.90;;;;;;5054734;28;20484;-68
2023/06/27 05:20:43;;;;;;;6.15;1.67;;;16.60;93.30;;;;;;5022492;28;20775;-68
2023/06/27 05:23:08;;;;;;;7.72;2.10;;;16.60;84.20;;;;;;5042500;28;20413;-68
2023/06/27 05:25:34;;;;;;;6.43;1.90;;;16.70;42.40;;;;;;5061609;28;20767;-69
2023/06/27 05:28:00;;;;;;;6.72;1.80;;;16.70;99.90;;;;;;5062852;28;20452;-69
2023/06/27 05:30:27;;;;;;;7.72;2.00;;;16.80;99.90;;;;;;5038988;28;20524;-69
2023/06/27 05:33:03;;;;;;;6.07;1.98;;;16.80;99.90;;;;;;5047397;28;20440;-69
2023/06/27 05:35:28;;;;;;;6.97;2.00;;;16.90;99.90;;;;;;5041433;28;20767;-69
2023/06/27 05:37:54;;;;;;;5.13;1.60;;;16.90;1.00;;;;;;5046954;28;20413;-69
2023/06/27 05:40:20;;;;;;;6.68;1.80;;;17.00;99.90;;;;;;5049463;28;20446;-69
2023/06/27 05:42:46;;;;;;;6.87;1.60;;;17.00;1.00;;;;;;5044902;28;20823;-69
2023/06/27 05:45:11;;;;;;;8.40;2.25;;;17.10;61.50;;;;;;5046038;28;20492;-69
2023/06/27 05:47:37;;;;;;;7.90;1.80;;;17.20;1.00;;;;;;5049437;28;20539;-69
2023/06/27 05:50:03;;;;;;;6.53;1.70;;;17.20;1.00;;;;;;5060875;28;20403;-69
2023/06/27 05:52:29;;;;;;;6.00;1.75;;;17.30;99.90;;;;;;5048573;28;20514;-69
2023/06/27 05:54:55;;;;;;;4.43;1.23;;;17.40;99.90;;;;;;5025703;28;20413;-69
2023/06/27 05:57:22;;;;;;;4.47;1.30;;;17.40;1.00;;;;;;5046307;28;20493;-69
2023/06/27 05:59:48;;;;;;;7.35;1.90;;;17.50;99.90;;;;;;5045939;28;20508;-69
2023/06/27 06:02:14;;;;;;;5.40;1.67;;;17.50;1.00;;;;;;5048631;28;20408;-69
2023/06/27 06:04:39;;;;;;;6.40;1.50;;;17.60;1.00;;;;;;5033655;28;20401;-69
2023/06/27 06:07:05;;;;;;;5.33;1.43;;;17.60;99.90;;;;;;5066533;28;20465;-69
2023/06/27 06:09:31;;;;;;;8.27;1.42;;;17.70;99.90;;;;;;5067531;28;20508;-69
2023/06/27 06:11:57;;;;;;;9.10;2.10;;;17.70;99.90;;;;;;5045188;28;20444;-69
2023/06/27 06:14:23;;;;;;;7.45;1.33;;;17.80;99.90;;;;;;5036498;28;20414;-69
2023/06/27 06:16:49;;;;;;;5.93;1.15;;;17.90;99.90;;;;;;5046056;28;20563;-69
2023/06/27 06:19:15;;;;;;;6.10;1.40;;;18.00;99.90;;;;;;5044289;28;20493;-69
2023/06/27 06:21:40;;;;;;;5.28;1.20;;;18.00;1.00;;;;;;5047082;28;20518;-69
2023/06/27 06:24:10;;;;;;;5.82;1.30;;;18.20;1.00;;;;;;5045403;28;20418;-69
2023/06/27 06:26:36;;;;;;;4.95;1.42;;;18.20;99.90;;;;;;5040735;28;20411;-69
2023/06/27 06:29:05;;;;;;;6.40;1.02;;;18.20;99.90;;;;;;5050478;28;20402;-69
2023/06/27 06:31:31;;;;;;;5.55;1.30;;;18.20;1.00;;;;;;5019104;28;20474;-69
2023/06/27 06:33:57;;;;;;;5.43;1.27;;;18.30;1.00;;;;;;5048881;28;20440;-69
2023/06/27 06:36:26;;;;;;;6.07;1.40;;;18.30;5.70;;;;;;5050187;28;20436;-69
2023/06/27 06:38:51;;;;;;;8.52;1.30;;;18.40;99.90;;;;;;5048498;28;20903;-69
2023/06/27 06:41:18;;;;;;;6.67;1.00;;;18.50;99.90;;;;;;5046895;28;20408;-69
2023/06/27 06:43:44;;;;;;;7.47;1.20;;;18.50;99.90;;;;;;5046327;28;20415;-69
2023/06/27 06:46:10;;;;;;;5.50;1.10;;;18.60;74.50;;;;;;5045789;28;20418;-70
2023/06/27 06:48:36;;;;;;;7.22;1.25;;;18.60;84.50;;;;;;5041353;28;20920;-69
2023/06/27 06:51:02;;;;;;;5.85;0.90;;;18.70;90.70;;;;;;5032118;28;20422;-69
2023/06/27 06:53:27;;;;;;;4.93;0.95;;;18.80;99.90;;;;;;5046719;28;20798;-69
2023/06/27 06:55:53;;;;;;;5.68;0.95;;;18.90;1.00;;;;;;5040366;28;20422;-69
2023/06/27 06:58:18;;;;;;;6.53;1.10;;;19.00;99.90;;;;;;5047608;28;20604;-70
2023/06/27 07:00:44;;;;;;;3.30;0.70;;;19.10;99.90;;;;;;5040481;28;20419;-69
2023/06/27 07:03:10;;;;;;;6.88;1.30;;;19.20;72.40;;;;;;5031992;28;20787;-69
2023/06/27 07:05:40;;;;;;;5.50;0.90;;;19.10;99.90;;;;;;5044662;28;20414;-69
2023/06/27 07:08:06;;;;;;;6.45;1.02;;;19.10;99.90;;;;;;5033033;28;20415;-69
2023/06/27 07:10:32;;;;;;;5.95;0.98;;;19.00;99.90;;;;;;5046654;28;20486;-69
2023/06/27 07:12:59;;;;;;;5.10;1.08;;;19.00;99.90;;;;;;5029492;28;20503;-69
2023/06/27 07:15:26;;;;;;;6.32;0.95;;;19.10;99.90;;;;;;5048037;28;20417;-69
2023/06/27 07:17:51;;;;;;;3.72;0.70;;;19.30;99.90;;;;;;5063627;28;20407;-70
2023/06/27 07:20:19;;;;;;;3.42;0.60;;;19.50;1.00;;;;;;5048393;28;20901;-70
2023/06/27 07:22:45;;;;;;;4.05;0.80;;;19.50;99.90;;;;;;5033349;28;20440;-69
2023/06/27 07:25:11;;;;;;;4.80;0.68;;;19.60;99.90;;;;;;5069780;28;20399;-69
2023/06/27 07:27:37;;;;;;;4.75;0.60;;;19.70;99.90;;;;;;5050236;28;20779;-69
2023/06/27 07:30:03;;;;;;;6.53;0.70;;;19.70;99.90;;;;;;5051138;28;20404;-69
2023/06/27 07:32:28;;;;;;;6.30;0.77;;;19.80;89.20;;;;;;5051024;28;20432;-70
2023/06/27 07:34:54;;;;;;;4.20;0.50;;;19.80;16.00;;;;;;5051045;28;20438;-69
2023/06/27 07:37:19;;;;;;;5.17;0.60;;;19.80;1.00;;;;;;5044678;28;20768;-69
2023/06/27 07:39:45;;;;;;;5.28;0.90;;;19.90;1.00;;;;;;5042618;28;20406;-69
2023/06/27 07:42:11;;;;;;;4.80;0.83;;;20.10;1.00;;;;;;5034738;28;20438;-69
2023/06/27 07:44:37;;;;;;;5.50;0.60;;;20.30;1.00;;;;;;5049884;28;20752;-69
2023/06/27 07:47:02;;;;;;;4.30;0.80;;;20.50;1.00;;;;;;5032644;28;20426;-69
2023/06/27 07:49:30;;;;;;;3.95;0.50;;;20.50;1.00;;;;;;5069321;28;20765;-71
2023/06/27 07:51:56;;;;;;;3.88;0.50;;;20.50;1.00;;;;;;5049462;28;20477;-70
2023/06/27 07:54:26;;;;;;;4.17;0.60;;;20.50;99.90;;;;;;5042800;28;20524;-69
2023/06/27 07:56:52;;;;;;;5.53;0.60;;;20.60;99.90;;;;;;5050151;28;20416;-69
2023/06/27 07:59:18;;;;;;;4.57;0.60;;;20.70;99.90;;;;;;5043666;28;20829;-69
2023/06/27 08:01:43;;;;;;;3.97;0.60;;;20.80;99.90;;;;;;5046411;28;20429;-69
2023/06/27 08:04:09;;;;;;;3.40;0.70;;;20.80;99.90;;;;;;5042968;28;20437;-69
2023/06/27 08:06:34;;;;;;;4.72;0.70;;;20.90;99.90;;;;;;5039833;28;20414;-69
2023/06/27 08:09:00;;;;;;;3.63;0.90;;;20.90;99.90;;;;;;5049651;28;20473;-70
2023/06/27 08:11:26;;;;;;;3.20;0.50;;;21.00;99.90;;;;;;5049176;28;20482;-69
2023/06/27 08:13:52;;;;;;;4.95;0.80;;;20.90;99.90;;;;;;5047110;28;20409;-69
2023/06/27 08:16:17;;;;;;;3.67;0.57;;;20.90;99.90;;;;;;5027492;28;20451;-69
2023/06/27 08:18:43;;;;;;;4.28;0.60;;;20.80;99.90;;;;;;5044467;28;20862;-70
2023/06/27 08:21:08;;;;;;;6.47;1.00;;;20.70;99.90;;;;;;5063690;28;20407;-70
2023/06/27 08:23:34;;;;;;;6.80;0.90;;;20.60;99.90;;;;;;5046198;28;20439;-69
2023/06/27 08:26:00;;;;;;;2.58;0.50;;;20.50;99.90;;;;;;5034643;28;20402;-70
2023/06/27 08:28:25;;;;;;;3.37;0.70;;;20.50;99.90;;;;;;5031359;28;20742;-72
2023/06/27 08:30:51;;;;;;;2.77;0.60;;;20.50;99.90;;;;;;5050545;28;20439;-68
2023/06/27 08:33:17;;;;;;;4.50;0.90;;;20.60;99.90;;;;;;5046960;28;20471;-68
2023/06/27 08:35:43;;;;;;;4.50;0.67;;;20.80;99.90;;;;;;5045854;28;20406;-69
2023/06/27 08:38:10;;;;;;;4.88;0.90;;;20.80;99.90;;;;;;5030004;28;20413;-69
2023/06/27 08:40:36;;;;;;;7.45;0.88;;;21.00;99.90;;;;;;5045579;28;20429;-69
2023/06/27 08:43:04;;;;;;;5.78;0.82;;;21.20;99.90;;;;;;5046473;28;20890;-69
2023/06/27 08:45:30;;;;;;;4.70;0.70;;;21.40;99.90;;;;;;5063537;28;20881;-68
2023/06/27 08:47:57;;;;;;;3.42;0.60;;;21.40;99.90;;;;;;5046989;28;20910;-69
2023/06/27 08:50:23;;;;;;;3.00;0.60;;;21.40;99.90;;;;;;5054923;28;20814;-69
2023/06/27 08:52:55;;;;;;;4.60;0.60;;;21.50;99.90;;;;;;5041300;28;20513;-69
2023/06/27 08:55:42;;;;;;;3.88;0.60;;;21.60;99.90;;;;;;5035911;28;20474;-69
2023/06/27 08:58:15;;;;;;;5.13;0.93;;;21.70;99.90;;;;;;5040155;28;20769;-69
2023/06/27 09:00:47;;;;;;;4.28;0.60;;;21.80;99.90;;;;;;5021778;28;20417;-69
2023/06/27 09:03:13;;;;;;;4.57;0.50;;;21.90;99.90;;;;;;5043539;28;20406;-71
2023/06/27 09:05:41;;;;;;;5.05;0.82;;;21.90;99.90;;;;;;5047168;28;20751;-68
2023/06/27 09:08:07;;;;;;;4.35;0.50;;;21.90;99.90;;;;;;5047358;28;20409;-69
2023/06/27 09:10:33;;;;;;;4.88;0.40;;;21.90;99.90;;;;;;5049166;28;20475;-70
2023/06/27 09:12:59;;;;;;;4.57;0.60;;;21.80;99.90;;;;;;5046908;28;20465;-69
2023/06/27 09:15:25;;;;;;;3.50;0.50;;;21.80;99.90;;;;;;5046044;28;20405;-69
2023/06/27 09:17:52;;;;;;;5.50;0.65;;;21.80;99.90;;;;;;5042974;28;20411;-68
2023/06/27 09:20:18;;;;;;;5.55;0.45;;;22.00;99.90;;;;;;5049941;28;20408;-68
2023/06/27 09:22:45;;;;;;;4.03;0.40;;;22.20;99.90;;;;;;5049653;28;20420;-68
2023/06/27 09:25:15;;;;;;;3.95;0.70;;;22.40;99.90;;;;;;5049013;28;20408;-69
2023/06/27 09:27:42;;;;;;;3.63;0.60;;;22.60;99.90;;;;;;5049738;28;20411;-69
2023/06/27 09:30:09;;;;;;;2.22;0.40;;;22.80;99.90;;;;;;5046266;28;20452;-69
2023/06/27 09:32:54;;;;;;;4.50;0.50;;;22.80;99.90;;;;;;5044918;28;20471;-69
2023/06/27 09:35:20;;;;;;;4.13;0.40;;;22.90;99.90;;;;;;5046565;28;20413;-68
2023/06/27 09:37:46;;;;;;;4.35;0.50;;;23.00;99.90;;;;;;5045010;28;20410;-69
2023/06/27 09:40:19;;;;;;;3.63;0.50;;;23.10;99.90;;;;;;5066937;28;20408;-69
2023/06/27 09:42:52;;;;;;;3.42;0.45;;;23.40;99.90;;;;;;5049377;28;20408;-69
2023/06/27 09:45:19;;;;;;;5.28;0.80;;;23.50;99.90;;;;;;5047091;28;20858;-69
2023/06/27 09:47:49;;;;;;;3.33;0.60;;;23.70;99.90;;;;;;5042625;28;20474;-69
2023/06/27 09:50:15;;;;;;;4.28;0.40;;;23.90;99.90;;;;;;5067396;28;20909;-69
2023/06/27 09:52:55;;;;;;;4.57;0.60;;;24.10;99.90;;;;;;5048128;28;20440;-69
2023/06/27 09:55:21;;;;;;;4.20;0.50;;;24.10;99.90;;;;;;5068089;28;20526;-71
2023/06/27 09:57:50;;;;;;;5.47;0.80;;;24.10;99.90;;;;;;5058757;28;20489;-70
2023/06/27 10:00:21;;;;;;;6.97;0.70;;;24.00;99.90;;;;;;5034982;28;20444;-70
2023/06/27 10:02:51;;;;;;;3.60;0.40;;;23.90;99.90;;;;;;5040717;28;20413;-70
2023/06/27 10:05:18;;;;;;;2.40;0.30;;;23.90;99.90;;;;;;5059225;28;20971;-70
2023/06/27 10:07:44;;;;;;;4.95;0.73;;;23.80;99.90;;;;;;5036422;28;20866;-70
2023/06/27 10:10:11;;;;;;;5.23;0.70;;;23.70;99.90;;;;;;5033984;28;20406;-70
2023/06/27 10:12:37;;;;;;;4.35;0.52;;;23.90;99.90;;;;;;5052704;28;20434;-70
2023/06/27 10:15:05;;;;;;;3.30;0.40;;;24.10;99.90;;;;;;5052541;28;20400;-69
2023/06/27 10:17:31;;;;;;;3.10;0.47;;;24.20;99.90;;;;;;5044347;28;20413;-70
2023/06/27 10:19:57;;;;;;;3.80;0.40;;;24.40;99.90;;;;;;5032800;28;20405;-70
2023/06/27 10:22:29;;;;;;;3.75;0.50;;;24.60;99.90;;;;;;5070723;28;20396;-70
2023/06/27 10:25:00;;;;;;;4.63;0.40;;;24.80;99.90;;;;;;5042658;28;20412;-70
2023/06/27 10:27:26;;;;;;;3.17;0.40;;;24.70;99.90;;;;;;5036375;28;20436;-70
2023/06/27 10:29:51;;;;;;;3.13;0.55;;;24.60;99.90;;;;;;5070564;28;20446;-70
2023/06/27 10:32:19;;;;;;;3.83;0.63;;;24.60;99.90;;;;;;5070293;28;20921;-70
2023/06/27 10:34:45;;;;;;;3.08;0.50;;;24.70;99.90;;;;;;5049064;28;20406;-70
2023/06/27 10:37:24;;;;;;;5.10;0.50;;;24.90;99.90;;;;;;5052692;28;20407;-70
2023/06/27 10:40:00;;;;;;;2.83;0.50;;;24.90;99.90;;;;;;5054197;28;20433;-70
2023/06/27 10:42:31;;;;;;;4.07;0.50;;;24.90;99.90;;;;;;5048713;28;20418;-70
2023/06/27 10:45:10;;;;;;;3.47;0.40;;;25.10;99.90;;;;;;5052528;28;20445;-70
2023/06/27 10:47:42;;;;;;;4.00;0.52;;;25.40;99.90;;;;;;5070231;28;20534;-70
2023/06/27 10:50:13;;;;;;;4.10;0.73;;;25.50;99.90;;;;;;5052450;28;20407;-70
2023/06/27 10:52:42;;;;;;;3.97;0.60;;;25.40;99.90;;;;;;5045904;28;20427;-70
2023/06/27 10:55:13;;;;;;;2.70;0.40;;;25.20;99.90;;;;;;5044640;28;20903;-70
2023/06/27 10:57:40;;;;;;;4.43;0.45;;;25.10;99.90;;;;;;5052506;28;20419;-70
2023/06/27 11:00:21;;;;;;;5.15;0.73;;;25.20;99.90;;;;;;5050636;28;20463;-70
2023/06/27 11:02:49;;;;;;;3.72;0.70;;;25.40;99.90;;;;;;5032169;28;20449;-70
2023/06/27 11:05:19;;;;;;;3.95;0.63;;;25.70;99.90;;;;;;5037357;28;20421;-70
2023/06/27 11:07:57;;;;;;;2.70;0.38;;;25.90;99.90;;;;;;5041117;28;20437;-70
2023/06/27 11:10:29;;;;;;;3.95;0.55;;;25.90;99.90;;;;;;5051004;28;20465;-70
2023/06/27 11:13:13;;;;;;;3.63;0.50;;;25.70;99.90;;;;;;5052091;28;20424;-70
2023/06/27 11:15:38;;;;;;;3.88;0.50;;;25.50;99.90;;;;;;5041545;28;20439;-70
2023/06/27 11:18:05;;;;;;;5.00;0.80;;;25.20;99.90;;;;;;5050145;28;20447;-70
2023/06/27 11:20:31;;;;;;;3.88;0.50;;;24.80;99.90;;;;;;5069523;28;20454;-69
2023/06/27 11:23:02;;;;;;;3.38;0.60;;;24.40;99.90;;;;;;5051277;28;20520;-70
2023/06/27 11:25:28;;;;;;;4.03;0.53;;;24.10;99.90;;;;;;5046690;28;20408;-70
2023/06/27 11:27:57;;;;;;;4.75;0.70;;;24.00;99.90;;;;;;5041436;28;20747;-70
2023/06/27 11:30:27;;;;;;;4.20;0.50;;;24.00;99.90;;;;;;5043853;28;20413;-70
2023/06/27 11:32:56;;;;;;;6.10;1.13;;;24.00;99.90;;;;;;5046212;28;20436;-70
2023/06/27 11:35:23;;;;;;;2.57;0.40;;;24.00;99.90;;;;;;5048035;28;20406;-70
2023/06/27 11:37:55;;;;;;;5.07;0.68;;;24.10;99.90;;;;;;5039419;28;20409;-70
2023/06/27 11:40:22;;;;;;;2.80;0.53;;;24.20;99.90;;;;;;5051179;28;20400;-70
2023/06/27 11:42:47;;;;;;;4.68;0.70;;;24.10;99.90;;;;;;5068402;28;20884;-70
2023/06/27 11:45:14;;;;;;;6.20;0.50;;;24.00;99.90;;;;;;5048309;28;20413;-69
2023/06/27 11:47:40;;;;;;;5.82;0.93;;;23.90;99.90;;;;;;5049571;28;20854;-70
2023/06/27 11:50:07;;;;;;;3.88;0.50;;;23.90;99.90;;;;;;5047850;28;20489;-70
2023/06/27 11:52:37;;;;;;;6.13;0.93;;;24.00;99.90;;;;;;5064930;28;20432;-70
2023/06/27 11:55:04;;;;;;;5.43;0.80;;;23.90;99.90;;;;;;5041913;28;20406;-70
2023/06/27 11:57:47;;;;;;;4.10;0.60;;;23.90;99.90;;;;;;5050931;28;20407;-70
2023/06/27 12:00:27;;;;;;;3.28;0.50;;;23.70;99.90;;;;;;5049903;28;20420;-70
2023/06/27 12:02:57;;;;;;;5.85;1.02;;;23.80;99.90;;;;;;5043437;28;20489;-70
2023/06/27 12:05:24;;;;;;;5.68;0.82;;;23.90;99.90;;;;;;5057889;28;20471;-70
2023/06/27 12:07:55;;;;;;;4.32;0.68;;;24.00;99.90;;;;;;5050859;28;20419;-70
2023/06/27 12:10:21;;;;;;;4.57;0.90;;;24.30;99.90;;;;;;5061834;28;20977;-70
2023/06/27 12:12:49;;;;;;;4.30;0.70;;;24.40;99.90;;;;;;5039986;28;20430;-70
2023/06/27 12:15:15;;;;;;;5.60;0.90;;;24.50;99.90;;;;;;5064624;28;21648;-70
2023/06/27 12:18:01;;;;;;;6.68;0.90;;;24.50;99.90;;;;;;5046340;28;20409;-70
2023/06/27 12:20:40;;;;;;;4.53;0.70;;;24.40;99.90;;;;;;5062817;28;20950;-70
2023/06/27 12:23:07;;;;;;;3.83;0.73;;;24.30;99.90;;;;;;5045461;28;20417;-70
2023/06/27 12:25:32;;;;;;;4.80;0.68;;;24.20;99.90;;;;;;5043828;28;20417;-70
2023/06/27 12:27:58;;;;;;;5.40;0.88;;;24.20;99.90;;;;;;5048594;28;20408;-70
2023/06/27 12:30:23;;;;;;;3.97;0.50;;;24.30;99.90;;;;;;5042765;28;20992;-70
2023/06/27 12:32:49;;;;;;;4.27;0.90;;;24.30;99.90;;;;;;5047275;28;20435;-70
2023/06/27 12:35:17;;;;;;;5.05;0.80;;;24.30;99.90;;;;;;5027565;28;20417;-70
2023/06/27 12:37:47;;;;;;;5.20;0.95;;;24.30;99.90;;;;;;5041438;28;20463;-70
2023/06/27 12:40:13;;;;;;;7.97;1.10;;;24.30;99.90;;;;;;5050033;28;20415;-70
2023/06/27 12:42:41;;;;;;;6.20;0.82;;;24.20;99.90;;;;;;5048115;28;20528;-70
2023/06/27 12:45:07;;;;;;;7.03;0.77;;;24.10;99.90;;;;;;5042497;28;20409;-70
2023/06/27 12:47:33;;;;;;;6.38;0.85;;;24.00;99.90;;;;;;5067050;28;20407;-70
2023/06/27 12:49:58;;;;;;;4.40;0.53;;;24.00;99.90;;;;;;5046770;28;20488;-70